sensor_id;sensor_type;location;lat;lon;timestamp;pressure;altitude;pressure_sealevel;temperature;humidity
8160;BME280;27404;52.398;9.646;2023-05-22T00:01:32;100839.34;;;17.12;100.00
8160;BME280;27404;52.398;9.646;2023-05-22T00:03:57;100833.84;;;17.12;100.00
8160;BME280;27404;52.398;9.646;2023-05-22T00:06:23;100832.47;;;17.05;100.00
8160;BME280;27404;52.398;9.646;2023-05-22T00:08:48;100830.50;;;17.00;100.00
8160;BME280;27404;52.398;9.646;2023-05-22T00:11:14;100832.13;;;16.96;100.00
8160;BME280;27404;52.398;9.646;2023-05-22T00:13:39;100823.34;;;17.09;100.00
8160;BME280;27404;52.398;9.646;2023-05-22T00:16:05;100823.06;;;17.06;100.00
8160;BME280;27404;52.398;9.646;2023-05-22T00:18:30;100831.06;;;17.12;100.00
8160;BME280;27404;52.398;9.646;2023-05-22T00:20:56;100828.59;;;17.21;100.00
8160;BME280;27404;52.398;9.646;2023-05-22T00:23:23;100823.09;;;17.21;100.00
8160;BME280;27404;52.398;9.646;2023-05-22T00:25:48;100822.78;;;17.17;100.00
8160;BME280;27404;52.398;9.646;2023-05-22T00:28:14;100818.91;;;17.13;100.00
8160;BME280;27404;52.398;9.646;2023-05-22T00:30:40;100815.06;;;17.14;100.00
8160;BME280;27404;52.398;9.646;2023-05-22T00:33:05;100818.09;;;17.18;100.00
8160;BME280;27404;52.398;9.646;2023-05-22T00:35:31;100817.81;;;17.30;100.00
8160;BME280;27404;52.398;9.646;2023-05-22T00:37:57;100813.09;;;17.25;100.00
8160;BME280;27404;52.398;9.646;2023-05-22T00:40:22;100822.78;;;17.28;100.00
8160;BME280;27404;52.398;9.646;2023-05-22T00:42:48;100817.81;;;17.35;100.00
8160;BME280;27404;52.398;9.646;2023-05-22T00:45:13;100817.28;;;17.33;100.00
8160;BME280;27404;52.398;9.646;2023-05-22T00:47:40;100813.69;;;17.22;100.00
8160;BME280;27404;52.398;9.646;2023-05-22T00:50:06;100807.31;;;17.22;100.00
8160;BME280;27404;52.398;9.646;2023-05-22T00:52:38;100812.84;;;17.22;100.00
8160;BME280;27404;52.398;9.646;2023-05-22T00:55:05;100801.78;;;17.11;100.00
8160;BME280;27404;52.398;9.646;2023-05-22T00:57:33;100807.88;;;17.08;100.00
8160;BME280;27404;52.398;9.646;2023-05-22T01:00:00;100806.22;;;17.07;100.00
8160;BME280;27404;52.398;9.646;2023-05-22T01:02:27;100802.31;;;16.98;100.00
8160;BME280;27404;52.398;9.646;2023-05-22T01:04:57;100798.16;;;16.95;100.00
8160;BME280;27404;52.398;9.646;2023-05-22T01:07:23;100796.78;;;16.93;100.00
8160;BME280;27404;52.398;9.646;2023-05-22T01:09:49;100798.16;;;16.85;100.00
8160;BME280;27404;52.398;9.646;2023-05-22T01:12:33;100802.56;;;16.86;100.00
8160;BME280;27404;52.398;9.646;2023-05-22T01:15:21;100798.69;;;16.82;100.00
8160;BME280;27404;52.398;9.646;2023-05-22T01:18:01;100794.56;;;16.79;100.00
8160;BME280;27404;52.398;9.646;2023-05-22T01:20:42;100793.44;;;16.91;100.00
8160;BME280;27404;52.398;9.646;2023-05-22T01:31:58;100787.91;;;16.70;100.00
8160;BME280;27404;52.398;9.646;2023-05-22T01:34:25;100787.91;;;16.65;100.00
8160;BME280;27404;52.398;9.646;2023-05-22T01:36:52;100785.69;;;16.62;100.00
8160;BME280;27404;52.398;9.646;2023-05-22T01:39:18;100787.06;;;16.59;100.00
8160;BME280;27404;52.398;9.646;2023-05-22T01:41:43;100785.72;;;16.67;100.00
8160;BME280;27404;52.398;9.646;2023-05-22T01:44:09;100781.56;;;16.75;100.00
8160;BME280;27404;52.398;9.646;2023-05-22T01:46:35;100787.63;;;16.66;100.00
8160;BME280;27404;52.398;9.646;2023-05-22T01:49:00;100789.28;;;16.67;100.00
8160;BME280;27404;52.398;9.646;2023-05-22T01:54:23;100795.06;;;16.55;100.00
8160;BME280;27404;52.398;9.646;2023-05-22T01:59:31;100787.31;;;16.52;100.00
8160;BME280;27404;52.398;9.646;2023-05-22T02:02:02;100777.13;;;16.48;100.00
8160;BME280;27404;52.398;9.646;2023-05-22T02:04:29;100774.03;;;16.39;100.00
8160;BME280;27404;52.398;9.646;2023-05-22T02:06:56;100776.22;;;16.32;100.00
8160;BME280;27404;52.398;9.646;2023-05-22T02:09:29;100772.38;;;16.33;100.00
8160;BME280;27404;52.398;9.646;2023-05-22T02:11:59;100774.28;;;16.27;100.00
8160;BME280;27404;52.398;9.646;2023-05-22T02:14:25;100765.72;;;16.28;100.00
8160;BME280;27404;52.398;9.646;2023-05-22T02:16:51;100768.22;;;16.30;100.00
8160;BME280;27404;52.398;9.646;2023-05-22T02:19:17;100760.78;;;16.31;100.00
8160;BME280;27404;52.398;9.646;2023-05-22T02:21:42;100759.66;;;16.32;100.00
8160;BME280;27404;52.398;9.646;2023-05-22T02:24:08;100755.53;;;16.29;100.00
8160;BME280;27404;52.398;9.646;2023-05-22T02:26:34;100747.53;;;16.22;100.00
8160;BME280;27404;52.398;9.646;2023-05-22T02:28:59;100753.31;;;16.21;100.00
8160;BME280;27404;52.398;9.646;2023-05-22T02:31:25;100753.25;;;16.05;100.00
8160;BME280;27404;52.398;9.646;2023-05-22T02:33:50;100747.44;;;15.96;100.00
8160;BME280;27404;52.398;9.646;2023-05-22T02:36:16;100743.78;;;15.86;100.00
8160;BME280;27404;52.398;9.646;2023-05-22T02:38:41;100759.72;;;15.78;100.00
8160;BME280;27404;52.398;9.646;2023-05-22T02:41:07;100748.09;;;15.71;100.00
8160;BME280;27404;52.398;9.646;2023-05-22T02:43:32;100741.97;;;15.59;100.00
8160;BME280;27404;52.398;9.646;2023-05-22T02:45:58;100746.63;;;15.53;100.00
8160;BME280;27404;52.398;9.646;2023-05-22T02:48:23;100744.06;;;15.41;100.00
8160;BME280;27404;52.398;9.646;2023-05-22T02:50:48;100744.88;;;15.36;100.00
8160;BME280;27404;52.398;9.646;2023-05-22T02:53:14;100745.38;;;15.28;100.00
8160;BME280;27404;52.398;9.646;2023-05-22T02:55:41;100745.63;;;15.27;100.00
8160;BME280;27404;52.398;9.646;2023-05-22T02:58:07;100732.97;;;15.31;100.00
8160;BME280;27404;52.398;9.646;2023-05-22T03:00:38;100742.06;;;15.26;100.00
8160;BME280;27404;52.398;9.646;2023-05-22T03:03:04;100741.44;;;15.19;100.00
8160;BME280;27404;52.398;9.646;2023-05-22T03:05:30;100740.44;;;15.30;100.00
8160;BME280;27404;52.398;9.646;2023-05-22T03:07:56;100739.34;;;15.31;100.00
8160;BME280;27404;52.398;9.646;2023-05-22T03:10:22;100741.25;;;15.31;100.00
8160;BME280;27404;52.398;9.646;2023-05-22T03:12:47;100750.03;;;15.28;100.00
8160;BME280;27404;52.398;9.646;2023-05-22T03:15:13;100746.94;;;15.19;100.00
8160;BME280;27404;52.398;9.646;2023-05-22T03:17:39;100741.19;;;15.20;100.00
8160;BME280;27404;52.398;9.646;2023-05-22T03:20:05;100743.06;;;15.15;100.00
8160;BME280;27404;52.398;9.646;2023-05-22T03:22:31;100732.66;;;15.22;100.00
8160;BME280;27404;52.398;9.646;2023-05-22T03:24:56;100739.09;;;15.38;100.00
8160;BME280;27404;52.398;9.646;2023-05-22T03:27:22;100733.34;;;15.45;100.00
8160;BME280;27404;52.398;9.646;2023-05-22T03:29:47;100739.44;;;15.47;100.00
8160;BME280;27404;52.398;9.646;2023-05-22T03:32:13;100743.28;;;15.46;100.00
8160;BME280;27404;52.398;9.646;2023-05-22T03:34:38;100737.50;;;15.47;100.00
8160;BME280;27404;52.398;9.646;2023-05-22T03:37:03;100737.84;;;15.56;100.00
8160;BME280;27404;52.398;9.646;2023-05-22T03:39:29;100742.25;;;15.62;100.00
8160;BME280;27404;52.398;9.646;2023-05-22T03:41:54;100731.78;;;15.59;100.00
8160;BME280;27404;52.398;9.646;2023-05-22T03:44:20;100743.06;;;15.58;100.00
8160;BME280;27404;52.398;9.646;2023-05-22T03:46:45;100743.41;;;15.72;100.00
8160;BME280;27404;52.398;9.646;2023-05-22T03:49:11;100738.19;;;15.70;100.00
8160;BME280;27404;52.398;9.646;2023-05-22T03:51:36;100742.81;;;15.64;100.00
8160;BME280;27404;52.398;9.646;2023-05-22T03:54:01;100736.75;;;15.62;100.00
8160;BME280;27404;52.398;9.646;2023-05-22T03:56:27;100732.06;;;15.63;100.00
8160;BME280;27404;52.398;9.646;2023-05-22T03:58:52;100734.56;;;15.64;100.00
8160;BME280;27404;52.398;9.646;2023-05-22T04:01:18;100736.53;;;15.69;100.00
8160;BME280;27404;52.398;9.646;2023-05-22T04:03:43;100738.47;;;15.74;100.00
8160;BME280;27404;52.398;9.646;2023-05-22T04:06:09;100739.63;;;15.83;100.00
8160;BME280;27404;52.398;9.646;2023-05-22T04:08:35;100734.19;;;15.93;100.00
8160;BME280;27404;52.398;9.646;2023-05-22T04:11:01;100737.50;;;15.95;100.00
8160;BME280;27404;52.398;9.646;2023-05-22T04:13:27;100734.78;;;16.06;100.00
8160;BME280;27404;52.398;9.646;2023-05-22T04:15:55;100738.94;;;16.13;100.00
8160;BME280;27404;52.398;9.646;2023-05-22T04:18:21;100740.63;;;16.20;100.00
8160;BME280;27404;52.398;9.646;2023-05-22T04:20:46;100739.25;;;16.27;100.00
8160;BME280;27404;52.398;9.646;2023-05-22T04:23:12;100746.16;;;16.30;100.00
8160;BME280;27404;52.398;9.646;2023-05-22T04:25:37;100750.31;;;16.43;100.00
8160;BME280;27404;52.398;9.646;2023-05-22T04:28:03;100750.09;;;16.55;100.00
8160;BME280;27404;52.398;9.646;2023-05-22T04:30:29;100746.50;;;16.54;100.00
8160;BME280;27404;52.398;9.646;2023-05-22T04:32:58;100750.09;;;16.65;100.00
8160;BME280;27404;52.398;9.646;2023-05-22T04:35:24;100747.91;;;16.78;100.00
8160;BME280;27404;52.398;9.646;2023-05-22T04:37:50;100752.03;;;16.91;100.00
8160;BME280;27404;52.398;9.646;2023-05-22T04:40:15;100741.56;;;17.08;100.00
8160;BME280;27404;52.398;9.646;2023-05-22T04:42:41;100745.44;;;17.23;100.00
8160;BME280;27404;52.398;9.646;2023-05-22T04:45:07;100739.66;;;17.19;100.00
8160;BME280;27404;52.398;9.646;2023-05-22T04:47:33;100744.88;;;17.31;100.00
8160;BME280;27404;52.398;9.646;2023-05-22T04:49:58;100746.78;;;17.46;100.00
8160;BME280;27404;52.398;9.646;2023-05-22T04:52:25;100739.03;;;17.53;100.00
8160;BME280;27404;52.398;9.646;2023-05-22T04:54:50;100747.63;;;17.52;100.00
8160;BME280;27404;52.398;9.646;2023-05-22T04:57:19;100737.03;;;17.74;100.00
8160;BME280;27404;52.398;9.646;2023-05-22T04:59:46;100733.16;;;17.70;100.00
8160;BME280;27404;52.398;9.646;2023-05-22T05:02:12;100738.84;;;18.10;100.00
8160;BME280;27404;52.398;9.646;2023-05-22T05:04:38;100735.06;;;18.46;100.00
8160;BME280;27404;52.398;9.646;2023-05-22T05:07:04;100732.66;;;18.34;100.00
8160;BME280;27404;52.398;9.646;2023-05-22T05:09:30;100732.22;;;18.06;100.00
8160;BME280;27404;52.398;9.646;2023-05-22T05:11:56;100732.16;;;18.22;100.00
8160;BME280;27404;52.398;9.646;2023-05-22T05:14:22;100728.47;;;18.37;100.00
8160;BME280;27404;52.398;9.646;2023-05-22T05:16:48;100730.38;;;18.41;100.00
8160;BME280;27404;52.398;9.646;2023-05-22T05:19:16;100725.56;;;18.57;100.00
8160;BME280;27404;52.398;9.646;2023-05-22T05:21:41;100722.47;;;18.64;100.00
8160;BME280;27404;52.398;9.646;2023-05-22T05:24:07;100724.72;;;18.97;100.00
8160;BME280;27404;52.398;9.646;2023-05-22T05:26:32;100728.34;;;19.27;100.00
8160;BME280;27404;52.398;9.646;2023-05-22T05:28:58;100726.53;;;19.65;100.00
8160;BME280;27404;52.398;9.646;2023-05-22T05:31:23;100728.16;;;19.72;100.00
8160;BME280;27404;52.398;9.646;2023-05-22T05:33:49;100728.72;;;19.44;100.00
8160;BME280;27404;52.398;9.646;2023-05-22T05:36:15;100724.06;;;19.64;100.00
8160;BME280;27404;52.398;9.646;2023-05-22T05:38:40;100727.25;;;20.01;100.00
8160;BME280;27404;52.398;9.646;2023-05-22T05:41:06;100722.06;;;19.70;100.00
8160;BME280;27404;52.398;9.646;2023-05-22T05:43:31;100729.16;;;19.81;100.00
8160;BME280;27404;52.398;9.646;2023-05-22T05:45:57;100728.31;;;19.80;100.00
8160;BME280;27404;52.398;9.646;2023-05-22T05:48:23;100732.59;;;20.54;100.00
8160;BME280;27404;52.398;9.646;2023-05-22T05:50:48;100728.59;;;21.88;99.53
8160;BME280;27404;52.398;9.646;2023-05-22T05:53:14;100735.16;;;22.71;91.34
8160;BME280;27404;52.398;9.646;2023-05-22T05:55:39;100736.03;;;21.93;92.87
8160;BME280;27404;52.398;9.646;2023-05-22T05:58:05;100739.47;;;23.00;86.33
8160;BME280;27404;52.398;9.646;2023-05-22T06:00:31;100727.75;;;23.84;83.95
8160;BME280;27404;52.398;9.646;2023-05-22T06:02:56;100732.16;;;23.35;84.23
8160;BME280;27404;52.398;9.646;2023-05-22T06:05:21;100732.97;;;23.36;82.71
8160;BME280;27404;52.398;9.646;2023-05-22T06:07:47;100728.91;;;22.65;86.60
8160;BME280;27404;52.398;9.646;2023-05-22T06:10:14;100734.41;;;23.65;82.41
8160;BME280;27404;52.398;9.646;2023-05-22T06:12:39;100731.81;;;23.37;83.85
8160;BME280;27404;52.398;9.646;2023-05-22T06:15:06;100745.00;;;23.45;81.22
8160;BME280;27404;52.398;9.646;2023-05-22T06:17:32;100733.44;;;23.06;81.65
8160;BME280;27404;52.398;9.646;2023-05-22T06:19:58;100731.47;;;23.07;84.31
8160;BME280;27404;52.398;9.646;2023-05-22T06:22:24;100734.94;;;23.35;83.69
8160;BME280;27404;52.398;9.646;2023-05-22T06:24:53;100734.38;;;23.25;82.78
8160;BME280;27404;52.398;9.646;2023-05-22T06:27:22;100735.22;;;24.06;79.48
8160;BME280;27404;52.398;9.646;2023-05-22T06:29:48;100742.19;;;24.44;77.73
8160;BME280;27404;52.398;9.646;2023-05-22T06:32:14;100732.63;;;24.36;77.64
8160;BME280;27404;52.398;9.646;2023-05-22T06:34:40;100742.84;;;24.84;76.50
8160;BME280;27404;52.398;9.646;2023-05-22T06:37:06;100743.31;;;25.04;74.73
8160;BME280;27404;52.398;9.646;2023-05-22T06:39:31;100749.00;;;26.12;70.80
8160;BME280;27404;52.398;9.646;2023-05-22T06:41:57;100750.06;;;26.71;67.96
8160;BME280;27404;52.398;9.646;2023-05-22T06:44:22;100750.59;;;27.07;64.79
8160;BME280;27404;52.398;9.646;2023-05-22T06:46:50;100757.38;;;27.52;63.33
8160;BME280;27404;52.398;9.646;2023-05-22T06:49:16;100755.75;;;26.62;65.31
8160;BME280;27404;52.398;9.646;2023-05-22T06:51:42;100754.81;;;27.96;61.51
8160;BME280;27404;52.398;9.646;2023-05-22T06:54:07;100758.91;;;29.05;58.43
8160;BME280;27404;52.398;9.646;2023-05-22T06:56:34;100756.22;;;28.02;58.23
8160;BME280;27404;52.398;9.646;2023-05-22T06:58:59;100752.53;;;27.40;59.10
8160;BME280;27404;52.398;9.646;2023-05-22T07:01:25;100757.28;;;25.69;64.59
8160;BME280;27404;52.398;9.646;2023-05-22T07:03:50;100755.66;;;25.68;67.71
8160;BME280;27404;52.398;9.646;2023-05-22T07:06:16;100752.53;;;24.96;70.69
8160;BME280;27404;52.398;9.646;2023-05-22T07:08:42;100757.31;;;26.29;68.19
8160;BME280;27404;52.398;9.646;2023-05-22T07:11:07;100762.19;;;27.63;62.82
8160;BME280;27404;52.398;9.646;2023-05-22T07:13:33;100767.88;;;29.55;57.58
8160;BME280;27404;52.398;9.646;2023-05-22T07:15:58;100755.97;;;28.73;56.57
8160;BME280;27404;52.398;9.646;2023-05-22T07:18:24;100766.53;;;28.23;58.47
8160;BME280;27404;52.398;9.646;2023-05-22T07:20:49;100763.44;;;27.41;59.89
8160;BME280;27404;52.398;9.646;2023-05-22T07:23:14;100763.03;;;28.01;61.34
8160;BME280;27404;52.398;9.646;2023-05-22T07:25:41;100768.13;;;27.49;60.69
8160;BME280;27404;52.398;9.646;2023-05-22T07:28:06;100757.84;;;27.08;61.94
8160;BME280;27404;52.398;9.646;2023-05-22T07:30:37;100762.09;;;26.93;62.78
8160;BME280;27404;52.398;9.646;2023-05-22T07:33:03;100754.03;;;26.91;64.54
8160;BME280;27404;52.398;9.646;2023-05-22T07:35:29;100745.59;;;25.76;66.16
8160;BME280;27404;52.398;9.646;2023-05-22T07:37:55;100749.88;;;25.73;69.22
8160;BME280;27404;52.398;9.646;2023-05-22T07:40:20;100744.81;;;24.93;72.32
8160;BME280;27404;52.398;9.646;2023-05-22T07:42:46;100744.97;;;24.70;74.72
8160;BME280;27404;52.398;9.646;2023-05-22T07:45:11;100733.44;;;24.19;78.93
8160;BME280;27404;52.398;9.646;2023-05-22T07:47:37;100740.59;;;23.93;79.74
8160;BME280;27404;52.398;9.646;2023-05-22T07:50:03;100733.63;;;23.73;84.11
8160;BME280;27404;52.398;9.646;2023-05-22T07:52:29;100733.13;;;24.38;83.66
8160;BME280;27404;52.398;9.646;2023-05-22T07:54:56;100737.56;;;24.57;82.99
8160;BME280;27404;52.398;9.646;2023-05-22T07:57:22;100746.13;;;24.43;82.72
8160;BME280;27404;52.398;9.646;2023-05-22T07:59:47;100738.88;;;24.15;83.40
8160;BME280;27404;52.398;9.646;2023-05-22T08:02:13;100748.91;;;24.25;83.55
8160;BME280;27404;52.398;9.646;2023-05-22T08:04:39;100745.03;;;23.94;82.64
8160;BME280;27404;52.398;9.646;2023-05-22T08:07:05;100748.34;;;24.05;85.05
8160;BME280;27404;52.398;9.646;2023-05-22T08:09:30;100741.00;;;24.36;84.27
8160;BME280;27404;52.398;9.646;2023-05-22T08:11:56;100750.44;;;24.75;81.12
8160;BME280;27404;52.398;9.646;2023-05-22T08:14:21;100750.91;;;24.86;81.19
8160;BME280;27404;52.398;9.646;2023-05-22T08:16:47;100743.16;;;24.65;83.17
8160;BME280;27404;52.398;9.646;2023-05-22T08:19:13;100742.19;;;24.52;83.55
8160;BME280;27404;52.398;9.646;2023-05-22T08:21:38;100744.16;;;24.61;82.68
8160;BME280;27404;52.398;9.646;2023-05-22T08:24:05;100744.97;;;24.96;82.47
8160;BME280;27404;52.398;9.646;2023-05-22T08:26:31;100735.41;;;25.06;81.55
8160;BME280;27404;52.398;9.646;2023-05-22T08:28:58;100734.34;;;25.46;79.04
8160;BME280;27404;52.398;9.646;2023-05-22T08:31:23;100735.72;;;25.13;80.39
8160;BME280;27404;52.398;9.646;2023-05-22T08:33:49;100737.59;;;24.83;85.68
8160;BME280;27404;52.398;9.646;2023-05-22T08:36:14;100729.50;;;24.55;83.64
8160;BME280;27404;52.398;9.646;2023-05-22T08:38:40;100731.00;;;24.96;84.64
8160;BME280;27404;52.398;9.646;2023-05-22T08:41:06;100725.56;;;24.91;82.71
8160;BME280;27404;52.398;9.646;2023-05-22T08:43:32;100723.25;;;24.84;81.74
8160;BME280;27404;52.398;9.646;2023-05-22T08:46:04;100723.91;;;25.08;82.26
8160;BME280;27404;52.398;9.646;2023-05-22T08:48:33;100720.63;;;24.97;81.96
8160;BME280;27404;52.398;9.646;2023-05-22T08:51:03;100718.59;;;25.24;82.01
8160;BME280;27404;52.398;9.646;2023-05-22T08:53:32;100720.06;;;25.30;80.26
8160;BME280;27404;52.398;9.646;2023-05-22T08:55:58;100713.66;;;25.68;77.64
8160;BME280;27404;52.398;9.646;2023-05-22T08:58:24;100708.91;;;25.69;80.00
8160;BME280;27404;52.398;9.646;2023-05-22T09:00:51;100707.91;;;25.95;81.51
8160;BME280;27404;52.398;9.646;2023-05-22T09:03:17;100710.13;;;26.10;77.79
8160;BME280;27404;52.398;9.646;2023-05-22T09:05:45;100712.41;;;26.17;75.43
8160;BME280;27404;52.398;9.646;2023-05-22T09:08:11;100708.06;;;25.98;80.15
8160;BME280;27404;52.398;9.646;2023-05-22T09:10:36;100706.88;;;26.29;77.96
8160;BME280;27404;52.398;9.646;2023-05-22T09:13:03;100696.31;;;26.05;73.40
8160;BME280;27404;52.398;9.646;2023-05-22T09:15:30;100701.28;;;25.69;78.54
8160;BME280;27404;52.398;9.646;2023-05-22T09:17:56;100707.34;;;25.33;80.67
8160;BME280;27404;52.398;9.646;2023-05-22T09:20:23;100700.03;;;25.58;80.85
8160;BME280;27404;52.398;9.646;2023-05-22T09:22:48;100699.19;;;25.96;82.86
8160;BME280;27404;52.398;9.646;2023-05-22T09:25:17;100705.50;;;26.14;78.99
8160;BME280;27404;52.398;9.646;2023-05-22T09:27:47;100695.59;;;25.87;79.49
8160;BME280;27404;52.398;9.646;2023-05-22T09:30:19;100699.50;;;25.95;78.70
8160;BME280;27404;52.398;9.646;2023-05-22T09:32:47;100695.53;;;25.96;78.89
8160;BME280;27404;52.398;9.646;2023-05-22T09:35:13;100698.38;;;26.17;77.23
8160;BME280;27404;52.398;9.646;2023-05-22T09:37:39;100696.34;;;25.75;75.04
8160;BME280;27404;52.398;9.646;2023-05-22T09:40:06;100688.91;;;25.49;77.76
8160;BME280;27404;52.398;9.646;2023-05-22T09:42:33;100692.06;;;25.30;81.12
8160;BME280;27404;52.398;9.646;2023-05-22T09:45:06;100694.25;;;25.63;78.00
8160;BME280;27404;52.398;9.646;2023-05-22T09:47:32;100693.69;;;26.00;78.21
8160;BME280;27404;52.398;9.646;2023-05-22T09:50:03;100687.22;;;26.08;74.70
8160;BME280;27404;52.398;9.646;2023-05-22T09:52:34;100691.56;;;26.27;76.43
8160;BME280;27404;52.398;9.646;2023-05-22T09:55:05;100691.91;;;26.46;73.60
8160;BME280;27404;52.398;9.646;2023-05-22T09:57:44;100694.91;;;26.63;74.15
8160;BME280;27404;52.398;9.646;2023-05-22T10:00:11;100692.00;;;26.71;72.33
8160;BME280;27404;52.398;9.646;2023-05-22T10:02:52;100689.13;;;26.80;73.50
8160;BME280;27404;52.398;9.646;2023-05-22T10:05:19;100687.41;;;26.88;75.17
8160;BME280;27404;52.398;9.646;2023-05-22T10:07:48;100681.03;;;26.79;75.09
8160;BME280;27404;52.398;9.646;2023-05-22T10:10:16;100695.22;;;25.97;74.22
8160;BME280;27404;52.398;9.646;2023-05-22T10:13:03;100683.69;;;25.69;76.92
8160;BME280;27404;52.398;9.646;2023-05-22T10:15:29;100686.31;;;25.74;78.33
8160;BME280;27404;52.398;9.646;2023-05-22T10:17:56;100690.47;;;26.19;76.17
8160;BME280;27404;52.398;9.646;2023-05-22T10:20:24;100681.25;;;26.40;75.51
8160;BME280;27404;52.398;9.646;2023-05-22T10:22:50;100682.34;;;26.81;75.40
8160;BME280;27404;52.398;9.646;2023-05-22T10:25:17;100685.97;;;27.15;75.63
8160;BME280;27404;52.398;9.646;2023-05-22T10:27:43;100670.94;;;27.57;72.18
8160;BME280;27404;52.398;9.646;2023-05-22T10:35:58;100666.88;;;26.96;72.05
8160;BME280;27404;52.398;9.646;2023-05-22T10:41:02;100664.78;;;26.38;72.58
8160;BME280;27404;52.398;9.646;2023-05-22T10:43:29;100667.41;;;26.56;71.57
8160;BME280;27404;52.398;9.646;2023-05-22T10:46:05;100665.53;;;26.81;72.79
8160;BME280;27404;52.398;9.646;2023-05-22T10:48:47;100661.38;;;26.66;72.63
8160;BME280;27404;52.398;9.646;2023-05-22T10:51:14;100662.78;;;26.72;71.09
8160;BME280;27404;52.398;9.646;2023-05-22T10:53:42;100665.66;;;26.85;75.35
8160;BME280;27404;52.398;9.646;2023-05-22T10:56:14;100661.59;;;26.95;70.84
8160;BME280;27404;52.398;9.646;2023-05-22T10:58:43;100657.88;;;27.03;71.48
8160;BME280;27404;52.398;9.646;2023-05-22T11:01:16;100649.34;;;26.99;73.20
8160;BME280;27404;52.398;9.646;2023-05-22T11:03:52;100645.97;;;26.72;72.72
8160;BME280;27404;52.398;9.646;2023-05-22T11:06:38;100654.59;;;26.67;73.71
8160;BME280;27404;52.398;9.646;2023-05-22T11:09:28;100646.13;;;26.76;74.51
8160;BME280;27404;52.398;9.646;2023-05-22T11:14:55;100640.69;;;26.58;74.88
8160;BME280;27404;52.398;9.646;2023-05-22T11:17:26;100643.34;;;26.55;74.56
8160;BME280;27404;52.398;9.646;2023-05-22T11:20:12;100636.81;;;26.63;74.32
8160;BME280;27404;52.398;9.646;2023-05-22T11:22:43;100632.75;;;26.60;75.67
8160;BME280;27404;52.398;9.646;2023-05-22T11:25:18;100636.81;;;26.63;75.23
8160;BME280;27404;52.398;9.646;2023-05-22T11:27:45;100622.53;;;26.43;74.27
8160;BME280;27404;52.398;9.646;2023-05-22T11:30:11;100620.66;;;26.14;76.62
8160;BME280;27404;52.398;9.646;2023-05-22T11:32:38;100609.69;;;26.00;81.20
8160;BME280;27404;52.398;9.646;2023-05-22T11:35:04;100620.69;;;26.05;79.17
8160;BME280;27404;52.398;9.646;2023-05-22T11:37:32;100621.72;;;26.22;79.82
8160;BME280;27404;52.398;9.646;2023-05-22T11:40:03;100618.56;;;26.44;77.60
8160;BME280;27404;52.398;9.646;2023-05-22T11:42:30;100622.22;;;26.24;79.60
8160;BME280;27404;52.398;9.646;2023-05-22T11:44:55;100612.84;;;26.20;78.31
8160;BME280;27404;52.398;9.646;2023-05-22T11:47:21;100618.47;;;25.90;80.29
8160;BME280;27404;52.398;9.646;2023-05-22T11:49:46;100615.81;;;25.72;80.03
8160;BME280;27404;52.398;9.646;2023-05-22T11:52:12;100616.03;;;25.67;78.44
8160;BME280;27404;52.398;9.646;2023-05-22T11:54:37;100619.16;;;25.65;79.48
8160;BME280;27404;52.398;9.646;2023-05-22T11:57:07;100619.97;;;25.66;79.73
8160;BME280;27404;52.398;9.646;2023-05-22T11:59:33;100616.78;;;25.97;78.97
8160;BME280;27404;52.398;9.646;2023-05-22T12:01:58;100610.09;;;26.11;78.16
8160;BME280;27404;52.398;9.646;2023-05-22T12:04:24;100609.84;;;26.25;76.51
8160;BME280;27404;52.398;9.646;2023-05-22T12:06:50;100612.06;;;26.31;74.81
8160;BME280;27404;52.398;9.646;2023-05-22T12:09:16;100604.91;;;26.22;77.29
8160;BME280;27404;52.398;9.646;2023-05-22T12:11:48;100609.41;;;26.35;78.89
8160;BME280;27404;52.398;9.646;2023-05-22T12:14:14;100600.03;;;26.65;74.51
8160;BME280;27404;52.398;9.646;2023-05-22T12:16:40;100602.56;;;26.45;75.21
8160;BME280;27404;52.398;9.646;2023-05-22T12:19:09;100607.75;;;26.68;74.48
8160;BME280;27404;52.398;9.646;2023-05-22T12:21:37;100600.44;;;26.42;72.80
8160;BME280;27404;52.398;9.646;2023-05-22T12:24:04;100603.25;;;26.42;72.04
8160;BME280;27404;52.398;9.646;2023-05-22T12:26:30;100602.72;;;26.27;73.24
8160;BME280;27404;52.398;9.646;2023-05-22T12:28:57;100601.91;;;26.06;73.03
8160;BME280;27404;52.398;9.646;2023-05-22T12:31:23;100594.81;;;26.42;72.99
8160;BME280;27404;52.398;9.646;2023-05-22T12:33:55;100588.16;;;26.34;72.79
8160;BME280;27404;52.398;9.646;2023-05-22T12:36:42;100596.41;;;26.30;72.48
8160;BME280;27404;52.398;9.646;2023-05-22T12:39:09;100594.50;;;26.22;72.92
8160;BME280;27404;52.398;9.646;2023-05-22T12:41:38;100594.03;;;25.99;72.60
8160;BME280;27404;52.398;9.646;2023-05-22T12:44:04;100590.00;;;26.09;72.25
8160;BME280;27404;52.398;9.646;2023-05-22T12:46:30;100584.41;;;26.30;72.76
8160;BME280;27404;52.398;9.646;2023-05-22T12:48:56;100587.53;;;26.07;74.63
8160;BME280;27404;52.398;9.646;2023-05-22T12:51:22;100583.50;;;25.96;75.63
8160;BME280;27404;52.398;9.646;2023-05-22T12:53:48;100583.78;;;25.82;75.62
8160;BME280;27404;52.398;9.646;2023-05-22T12:56:14;100580.78;;;25.66;77.23
8160;BME280;27404;52.398;9.646;2023-05-22T12:58:39;100586.41;;;25.87;77.77
8160;BME280;27404;52.398;9.646;2023-05-22T13:01:05;100580.66;;;26.05;74.03
8160;BME280;27404;52.398;9.646;2023-05-22T13:03:30;100579.56;;;26.18;74.33
8160;BME280;27404;52.398;9.646;2023-05-22T13:05:56;100577.78;;;26.13;75.01
8160;BME280;27404;52.398;9.646;2023-05-22T13:08:21;100585.31;;;26.00;75.15
8160;BME280;27404;52.398;9.646;2023-05-22T13:10:48;100580.78;;;26.29;75.22
8160;BME280;27404;52.398;9.646;2023-05-22T13:13:13;100586.69;;;26.49;74.07
8160;BME280;27404;52.398;9.646;2023-05-22T13:15:39;100588.22;;;26.59;74.39
8160;BME280;27404;52.398;9.646;2023-05-22T13:18:04;100579.44;;;26.48;74.81
8160;BME280;27404;52.398;9.646;2023-05-22T13:20:30;100574.81;;;26.65;74.83